Time;durP1;ratioP1;P1;durP2;ratioP2;P2;SDS_P1;SDS_P2;PMS_P1;PMS_P2;Temp;Humidity;BMP_temperature;BMP_pressure;BME280_temperature;BME280_humidity;BME280_pressure;Samples;Min_cycle;Max_cycle;Signal;HPM_P1;HPM_P2
2023/02/01 05:01:29;;;;;;;0.40;0.40;;;4.70;99.90;;;;;;5416479;23;20253;-67
2023/02/01 05:03:55;;;;;;;1.65;0.77;;;4.70;99.90;;;;;;4896485;29;20219;-66
2023/02/01 05:06:23;;;;;;;4.15;0.75;;;4.70;99.90;;;;;;4901093;29;20199;-66
2023/02/01 05:08:50;;;;;;;0.73;0.65;;;4.70;99.90;;;;;;4892212;29;20215;-67
2023/02/01 05:13:57;;;;;;;0.10;0.10;;;4.70;99.90;;;;;;4905451;29;20648;-67
2023/02/01 05:16:25;;;;;;;1.25;0.40;;;4.70;99.90;;;;;;4907934;29;20218;-67
2023/02/01 05:18:53;;;;;;;0.20;0.20;;;4.60;99.90;;;;;;4943836;23;20241;-67
2023/02/01 05:21:21;;;;;;;0.20;0.20;;;4.60;99.90;;;;;;4935126;29;20836;-67
2023/02/01 05:26:33;;;;;;;0.45;0.45;;;4.50;99.90;;;;;;4931456;29;20353;-67
2023/02/01 05:29:00;;;;;;;0.10;0.10;;;4.50;99.90;;;;;;4932226;29;20237;-68
2023/02/01 05:31:27;;;;;;;0.20;0.20;;;4.40;99.90;;;;;;4935195;29;20667;-68
2023/02/01 05:33:55;;;;;;;0.30;0.30;;;4.40;99.90;;;;;;4933606;29;20222;-68
2023/02/01 05:36:22;;;;;;;0.52;0.52;;;4.30;99.90;;;;;;4935306;29;20214;-68
2023/02/01 05:38:49;;;;;;;0.40;0.40;;;4.30;99.90;;;;;;4933156;29;20245;-68
2023/02/01 05:41:15;;;;;;;0.20;0.20;;;4.30;99.90;;;;;;4930336;29;20203;-68
2023/02/01 05:43:42;;;;;;;0.30;0.30;;;4.30;99.90;;;;;;4932420;29;20218;-69
2023/02/01 05:46:10;;;;;;;0.30;0.30;;;4.20;99.90;;;;;;4936130;29;20198;-69
2023/02/01 05:48:37;;;;;;;2.80;0.30;;;4.20;99.90;;;;;;4933633;29;20230;-69
2023/02/01 05:51:05;;;;;;;0.10;0.10;;;4.10;99.90;;;;;;4930547;29;20236;-69
2023/02/01 05:53:32;;;;;;;0.17;0.17;;;3.80;99.90;;;;;;4933960;29;20206;-69
2023/02/01 05:55:59;;;;;;;0.20;0.20;;;3.50;99.90;;;;;;4929438;29;20919;-69
2023/02/01 05:58:26;;;;;;;0.20;0.20;;;3.40;99.90;;;;;;4934088;29;20229;-69
2023/02/01 06:00:52;;;;;;;0.20;0.20;;;3.30;99.90;;;;;;4933855;29;20679;-69
2023/02/01 06:03:19;;;;;;;0.50;0.50;;;3.20;99.90;;;;;;4933297;29;20663;-69
2023/02/01 06:05:47;;;;;;;0.10;0.10;;;3.30;99.90;;;;;;4925819;29;20222;-69
2023/02/01 06:08:17;;;;;;;0.38;0.38;;;3.30;99.90;;;;;;4933325;29;20226;-69
2023/02/01 06:10:43;;;;;;;0.30;0.30;;;3.30;99.90;;;;;;4931374;29;20230;-69
2023/02/01 06:13:11;;;;;;;3.05;0.95;;;3.40;99.90;;;;;;4935039;29;20228;-69
2023/02/01 06:15:38;;;;;;;0.20;0.20;;;3.50;99.90;;;;;;4933972;29;20210;-69
2023/02/01 06:18:05;;;;;;;1.67;0.30;;;3.50;99.90;;;;;;4934452;29;20253;-69
2023/02/01 06:20:31;;;;;;;0.10;0.10;;;3.50;99.90;;;;;;4932742;29;20209;-69
2023/02/01 06:22:58;;;;;;;0.20;0.20;;;3.50;99.90;;;;;;4934022;29;20217;-69
2023/02/01 06:25:26;;;;;;;0.20;0.20;;;3.40;99.90;;;;;;4933312;29;20202;-68
2023/02/01 06:27:53;;;;;;;0.10;0.10;;;3.40;99.90;;;;;;4934044;29;20260;-68
2023/02/01 06:30:20;;;;;;;0.10;0.10;;;3.30;99.90;;;;;;4931458;29;20226;-68
2023/02/01 06:32:53;;;;;;;0.10;0.10;;;3.30;99.90;;;;;;4932779;29;20220;-68
2023/02/01 06:35:20;;;;;;;1.77;0.43;;;3.30;99.90;;;;;;4934531;29;20303;-67
2023/02/01 06:37:46;;;;;;;0.40;0.40;;;3.30;99.90;;;;;;4925837;29;20602;-68
2023/02/01 06:40:13;;;;;;;0.10;0.10;;;3.30;99.90;;;;;;4933835;29;20199;-68
2023/02/01 06:42:41;;;;;;;0.22;0.22;;;3.30;99.90;;;;;;4934418;29;20217;-68
2023/02/01 06:45:09;;;;;;;0.10;0.10;;;3.30;99.90;;;;;;4930597;29;20635;-68
2023/02/01 06:47:36;;;;;;;0.20;0.20;;;3.30;99.90;;;;;;4933023;29;20238;-68
2023/02/01 06:50:03;;;;;;;0.20;0.20;;;3.30;99.90;;;;;;4932229;29;20238;-69
2023/02/01 06:52:29;;;;;;;0.10;0.10;;;3.30;99.90;;;;;;4930635;29;20207;-69
2023/02/01 06:54:56;;;;;;;0.20;0.20;;;3.20;99.90;;;;;;4931307;29;20214;-69
2023/02/01 06:57:23;;;;;;;0.47;0.47;;;3.30;99.90;;;;;;4932944;29;20600;-69
2023/02/01 06:59:51;;;;;;;1.35;0.47;;;3.30;99.90;;;;;;4933710;29;20229;-69
2023/02/01 07:02:18;;;;;;;0.20;0.20;;;3.30;99.90;;;;;;4930525;29;20221;-68
2023/02/01 07:04:44;;;;;;;0.50;0.50;;;3.30;99.90;;;;;;4933553;29;20206;-68
2023/02/01 07:07:11;;;;;;;0.45;0.45;;;3.40;99.90;;;;;;4929192;29;20203;-68
2023/02/01 07:09:38;;;;;;;0.45;0.45;;;3.40;99.90;;;;;;4932664;29;20217;-68
2023/02/01 07:12:06;;;;;;;1.90;1.80;;;3.50;99.90;;;;;;4932503;29;20213;-67
2023/02/01 07:14:32;;;;;;;0.40;0.40;;;3.60;99.90;;;;;;4934909;29;20202;-69
2023/02/01 07:17:00;;;;;;;0.40;0.40;;;3.60;99.90;;;;;;4935427;29;20214;-69
2023/02/01 07:19:27;;;;;;;0.68;0.63;;;3.60;99.90;;;;;;4934464;29;20233;-68
2023/02/01 07:21:54;;;;;;;0.20;0.20;;;3.60;99.90;;;;;;4932716;29;20235;-68
2023/02/01 07:24:51;;;;;;;0.20;0.20;;;3.70;99.90;;;;;;4934365;29;20213;-69
2023/02/01 07:27:17;;;;;;;0.40;0.40;;;3.70;99.90;;;;;;4931872;29;20214;-69
2023/02/01 07:29:44;;;;;;;0.20;0.20;;;3.80;99.90;;;;;;4932336;29;20686;-69
2023/02/01 07:32:12;;;;;;;0.20;0.20;;;3.90;99.90;;;;;;4929391;29;20198;-69
2023/02/01 07:34:39;;;;;;;0.38;0.38;;;3.90;99.90;;;;;;4928524;29;20206;-69
2023/02/01 07:37:06;;;;;;;0.50;0.50;;;4.00;99.90;;;;;;4931539;29;20206;-69
2023/02/01 07:39:33;;;;;;;1.38;0.68;;;4.00;99.90;;;;;;4929948;29;20241;-69
2023/02/01 07:42:00;;;;;;;1.25;0.60;;;4.10;99.90;;;;;;4932373;29;20214;-69
2023/02/01 07:44:26;;;;;;;0.10;0.10;;;4.10;99.90;;;;;;4931503;29;20206;-69
2023/02/01 07:46:53;;;;;;;0.63;0.17;;;4.10;99.90;;;;;;4929170;29;20514;-69
2023/02/01 07:49:21;;;;;;;0.85;0.85;;;4.20;99.90;;;;;;4931237;29;20232;-69
2023/02/01 07:51:48;;;;;;;4.13;1.83;;;4.20;99.90;;;;;;4932715;29;20234;-69
2023/02/01 07:54:15;;;;;;;0.30;0.30;;;4.30;99.90;;;;;;4925912;29;20671;-69
2023/02/01 07:56:41;;;;;;;0.38;0.38;;;4.30;99.90;;;;;;4929758;29;20289;-69
2023/02/01 07:59:08;;;;;;;2.38;1.30;;;4.40;99.90;;;;;;4923850;29;20241;-69
2023/02/01 08:01:34;;;;;;;0.50;0.50;;;4.50;99.90;;;;;;4931002;29;20241;-69
2023/02/01 08:04:02;;;;;;;2.63;0.73;;;4.50;99.90;;;;;;4930758;29;20213;-69
2023/02/01 08:06:32;;;;;;;0.95;0.50;;;4.60;99.90;;;;;;4931025;28;20231;-68
2023/02/01 08:08:58;;;;;;;0.52;0.52;;;4.60;99.90;;;;;;4927131;29;20237;-70
2023/02/01 08:11:26;;;;;;;0.98;0.30;;;4.70;99.90;;;;;;4930934;29;20240;-68
2023/02/01 08:13:53;;;;;;;0.50;0.50;;;4.80;99.90;;;;;;4931298;29;20215;-68
2023/02/01 08:16:21;;;;;;;2.65;0.40;;;4.80;99.90;;;;;;4927814;29;20222;-68
2023/02/01 08:18:48;;;;;;;1.77;1.67;;;4.90;99.90;;;;;;4932107;29;20351;-68
2023/02/01 08:21:17;;;;;;;8.80;0.70;;;4.90;99.90;;;;;;4928625;29;20199;-68
2023/02/01 08:23:45;;;;;;;4.10;1.70;;;4.90;99.90;;;;;;4925759;29;20203;-68
2023/02/01 08:26:14;;;;;;;1.75;0.75;;;5.00;99.90;;;;;;4933272;29;20211;-68
2023/02/01 08:28:42;;;;;;;1.00;1.00;;;5.00;99.90;;;;;;4931281;29;20223;-68
2023/02/01 08:31:10;;;;;;;4.03;0.93;;;5.00;99.90;;;;;;4930641;29;20238;-69
2023/02/01 08:33:37;;;;;;;0.50;0.50;;;5.10;99.90;;;;;;4931202;29;20249;-68
2023/02/01 08:36:06;;;;;;;0.20;0.20;;;5.10;99.90;;;;;;4924933;29;20231;-69
2023/02/01 08:38:32;;;;;;;0.80;0.80;;;5.20;99.90;;;;;;4931257;29;20230;-69
2023/02/01 08:41:05;;;;;;;0.85;0.75;;;5.20;99.90;;;;;;4931062;29;20222;-69
2023/02/01 08:43:32;;;;;;;6.45;0.47;;;5.20;99.90;;;;;;4931217;29;20561;-68
2023/02/01 08:45:58;;;;;;;7.20;2.50;;;5.30;99.90;;;;;;4926832;29;20219;-68
2023/02/01 08:48:25;;;;;;;0.80;0.80;;;5.30;99.90;;;;;;4931931;29;20222;-68
2023/02/01 08:50:52;;;;;;;1.20;1.20;;;5.30;99.90;;;;;;4931555;29;20675;-68
2023/02/01 08:53:19;;;;;;;2.25;1.35;;;5.40;99.90;;;;;;4930730;29;20207;-67
2023/02/01 08:55:46;;;;;;;7.57;0.70;;;5.40;99.90;;;;;;4928276;29;20277;-68
2023/02/01 08:58:16;;;;;;;1.30;1.05;;;5.60;99.90;;;;;;4930032;29;20753;-69
2023/02/01 09:00:44;;;;;;;0.80;0.80;;;5.70;99.90;;;;;;4927546;29;20207;-68
2023/02/01 09:03:11;;;;;;;1.63;1.45;;;5.70;99.90;;;;;;4927072;29;20202;-68
2023/02/01 09:05:38;;;;;;;1.15;0.73;;;5.70;99.90;;;;;;4928846;29;20210;-68
2023/02/01 09:08:05;;;;;;;0.40;0.40;;;5.70;99.90;;;;;;4926670;29;20261;-68
2023/02/01 09:10:33;;;;;;;2.67;1.17;;;5.70;99.90;;;;;;4927319;29;20236;-68
2023/02/01 09:13:00;;;;;;;0.45;0.45;;;5.70;99.90;;;;;;4930834;29;20215;-68
2023/02/01 09:15:28;;;;;;;1.02;1.00;;;5.80;99.90;;;;;;4932934;29;20203;-68
2023/02/01 09:17:54;;;;;;;2.75;1.30;;;5.70;99.90;;;;;;4930713;29;20270;-68
2023/02/01 09:20:23;;;;;;;0.55;0.55;;;5.80;99.90;;;;;;4934771;29;20207;-68
2023/02/01 09:22:51;;;;;;;7.07;0.95;;;5.80;99.90;;;;;;4931596;29;20222;-68
2023/02/01 09:25:17;;;;;;;2.70;1.52;;;5.80;99.90;;;;;;4935309;29;20575;-70
2023/02/01 09:27:44;;;;;;;1.60;1.10;;;5.70;99.90;;;;;;4935735;29;20276;-68
2023/02/01 09:30:12;;;;;;;6.88;1.65;;;5.70;99.90;;;;;;4924412;29;20584;-68
2023/02/01 09:32:40;;;;;;;11.60;1.92;;;5.80;99.90;;;;;;4934577;29;20214;-68
2023/02/01 09:35:07;;;;;;;0.57;0.20;;;5.80;99.90;;;;;;4933277;29;20218;-68
2023/02/01 09:37:34;;;;;;;7.93;1.58;;;5.80;99.90;;;;;;4935374;29;20223;-68
2023/02/01 09:40:01;;;;;;;2.40;1.95;;;5.90;99.90;;;;;;4935807;29;20210;-68
2023/02/01 09:43:05;;;;;;;12.40;1.48;;;6.00;99.90;;;;;;4935479;29;21986;-69
2023/02/01 09:45:41;;;;;;;2.17;1.30;;;6.10;99.90;;;;;;4914065;29;20210;-68
2023/02/01 09:48:16;;;;;;;4.25;0.88;;;6.30;99.90;;;;;;4935836;29;20241;-69
2023/02/01 09:50:46;;;;;;;0.98;0.90;;;6.40;99.90;;;;;;4938197;29;20595;-68
2023/02/01 09:53:21;;;;;;;9.07;1.08;;;6.40;99.90;;;;;;4942454;29;20219;-69
2023/02/01 09:55:50;;;;;;;5.10;1.88;;;6.50;99.90;;;;;;4950307;29;20212;-68
2023/02/01 09:58:23;;;;;;;0.95;0.95;;;6.50;99.90;;;;;;4947392;29;20257;-68
2023/02/01 10:00:54;;;;;;;1.83;1.42;;;6.60;99.90;;;;;;4950664;29;20203;-69
2023/02/01 10:03:25;;;;;;;10.80;0.85;;;6.60;99.90;;;;;;4935728;29;20215;-68
2023/02/01 10:06:16;;;;;;;0.20;0.20;;;6.60;99.90;;;;;;4936205;29;20218;-68
2023/02/01 10:09:02;;;;;;;6.88;1.13;;;6.70;99.90;;;;;;4933779;29;20235;-68
2023/02/01 10:11:48;;;;;;;3.05;0.73;;;6.70;99.90;;;;;;4928869;29;20239;-68
2023/02/01 10:14:35;;;;;;;0.90;0.90;;;6.70;99.90;;;;;;4935036;29;20674;-69
2023/02/01 10:17:11;;;;;;;5.18;1.60;;;6.70;99.90;;;;;;4923096;29;20212;-70
2023/02/01 10:19:49;;;;;;;4.25;1.15;;;6.60;99.90;;;;;;4935290;29;20222;-70
2023/02/01 10:22:24;;;;;;;3.60;0.50;;;6.50;99.90;;;;;;4933778;29;20294;-69
2023/02/01 10:24:57;;;;;;;8.05;1.17;;;6.50;99.90;;;;;;4933298;29;20214;-69
2023/02/01 10:27:29;;;;;;;2.40;0.20;;;6.40;99.90;;;;;;4928945;29;20204;-68
2023/02/01 10:30:00;;;;;;;3.50;1.38;;;6.40;99.90;;;;;;4935182;29;20650;-69
2023/02/01 10:32:31;;;;;;;0.57;0.57;;;6.40;99.90;;;;;;4933948;29;20241;-68
2023/02/01 10:35:02;;;;;;;4.75;0.90;;;6.40;99.90;;;;;;4933064;29;20210;-68
2023/02/01 10:37:32;;;;;;;2.03;1.77;;;6.50;99.90;;;;;;4934252;29;20230;-68
2023/02/01 10:40:01;;;;;;;0.45;0.45;;;6.50;99.90;;;;;;4937237;29;20271;-68
2023/02/01 10:42:30;;;;;;;2.50;0.60;;;6.50;99.90;;;;;;4936326;29;20358;-68
2023/02/01 10:45:00;;;;;;;0.40;0.40;;;6.60;99.90;;;;;;4935673;29;20242;-68
2023/02/01 10:47:27;;;;;;;0.45;0.45;;;6.60;99.90;;;;;;4933142;29;20242;-69
2023/02/01 10:50:02;;;;;;;6.78;0.70;;;6.60;99.90;;;;;;4936138;29;20229;-68
2023/02/01 10:52:39;;;;;;;0.60;0.60;;;6.60;99.90;;;;;;4930062;29;20222;-68
2023/02/01 10:55:28;;;;;;;0.55;0.55;;;6.60;99.90;;;;;;4931886;29;20203;-68
2023/02/01 10:57:57;;;;;;;1.17;1.17;;;6.80;99.90;;;;;;4934543;29;20255;-69
2023/02/01 11:00:25;;;;;;;4.38;1.70;;;6.90;99.90;;;;;;4936661;29;20208;-69
2023/02/01 11:02:52;;;;;;;0.40;0.40;;;6.90;99.90;;;;;;4933120;29;20214;-68
2023/02/01 11:05:22;;;;;;;9.65;1.02;;;6.90;99.90;;;;;;4934166;29;20216;-68
2023/02/01 11:07:54;;;;;;;1.27;1.15;;;6.90;99.90;;;;;;4933224;29;20250;-68
2023/02/01 11:10:40;;;;;;;7.30;1.95;;;6.90;99.90;;;;;;4934054;29;20295;-68
2023/02/01 11:13:12;;;;;;;8.77;1.75;;;6.90;99.90;;;;;;4934268;29;20295;-68
2023/02/01 11:15:39;;;;;;;1.48;1.38;;;6.90;99.90;;;;;;4927861;29;20216;-68
2023/02/01 11:18:17;;;;;;;1.60;0.70;;;6.90;99.90;;;;;;4927602;29;20239;-68
2023/02/01 11:20:49;;;;;;;1.10;1.00;;;7.00;99.90;;;;;;4932450;29;20207;-68
2023/02/01 11:23:17;;;;;;;1.75;0.85;;;7.00;99.90;;;;;;4933178;29;20207;-68
2023/02/01 11:25:51;;;;;;;9.02;1.15;;;6.90;99.90;;;;;;4931904;29;20211;-68
2023/02/01 11:28:18;;;;;;;4.70;0.85;;;6.90;99.90;;;;;;4932252;29;20246;-68
2023/02/01 11:30:47;;;;;;;2.38;1.50;;;7.00;99.90;;;;;;4931266;29;20648;-68
2023/02/01 11:33:17;;;;;;;5.63;1.50;;;6.90;99.90;;;;;;4929903;29;20208;-68
2023/02/01 11:35:46;;;;;;;6.97;1.83;;;7.00;99.90;;;;;;4930508;29;20682;-68
2023/02/01 11:38:22;;;;;;;3.80;0.52;;;7.00;99.90;;;;;;4926872;29;20232;-68
2023/02/01 11:40:49;;;;;;;3.22;1.38;;;7.00;99.90;;;;;;4926080;29;20211;-68
2023/02/01 11:43:23;;;;;;;0.65;0.65;;;7.00;99.90;;;;;;4928487;29;20653;-68
2023/02/01 11:45:58;;;;;;;0.60;0.60;;;7.00;99.90;;;;;;4928691;29;20223;-68
2023/02/01 11:48:27;;;;;;;1.55;0.60;;;7.00;99.90;;;;;;4932456;29;20280;-68
2023/02/01 11:51:05;;;;;;;2.55;1.08;;;6.90;99.90;;;;;;4932297;29;20207;-68
2023/02/01 11:53:47;;;;;;;11.40;1.50;;;6.90;99.90;;;;;;4925758;29;20215;-68
2023/02/01 11:56:23;;;;;;;0.40;0.40;;;6.80;99.90;;;;;;4924628;29;20212;-68
2023/02/01 11:59:24;;;;;;;6.13;1.02;;;6.80;99.90;;;;;;4930066;29;20227;-68
2023/02/01 12:02:21;;;;;;;0.50;0.50;;;6.70;99.90;;;;;;4930481;29;20203;-69
2023/02/01 12:05:13;;;;;;;0.50;0.50;;;6.70;99.90;;;;;;4928306;29;20238;-69
2023/02/01 12:07:57;;;;;;;2.10;0.82;;;6.70;99.90;;;;;;4905687;29;20223;-69
2023/02/01 12:10:35;;;;;;;0.88;0.88;;;6.60;99.90;;;;;;4927360;29;20211;-69
2023/02/01 12:13:11;;;;;;;23.95;1.73;;;6.60;99.90;;;;;;4928722;29;20222;-67
2023/02/01 12:15:49;;;;;;;0.95;0.95;;;6.60;99.90;;;;;;4932712;29;20206;-68
2023/02/01 12:18:44;;;;;;;2.40;0.77;;;6.60;99.90;;;;;;4929202;29;20239;-68
2023/02/01 12:21:23;;;;;;;3.35;3.15;;;6.60;99.90;;;;;;4929079;29;20257;-69
2023/02/01 12:24:08;;;;;;;4.65;2.45;;;6.60;99.90;;;;;;4929682;29;20206;-69
2023/02/01 12:26:56;;;;;;;0.40;0.40;;;6.60;99.90;;;;;;4930168;29;20203;-68
2023/02/01 12:29:58;;;;;;;1.58;1.10;;;6.50;99.90;;;;;;4932682;29;20223;-68
2023/02/01 12:32:37;;;;;;;1.50;0.35;;;6.50;99.90;;;;;;4931576;29;20226;-68
2023/02/01 12:35:22;;;;;;;0.20;0.20;;;6.40;99.90;;;;;;4930884;29;20782;-68
2023/02/01 12:38:00;;;;;;;0.28;0.28;;;6.30;99.90;;;;;;4930139;29;20589;-69
2023/02/01 12:40:40;;;;;;;9.25;0.90;;;6.10;99.90;;;;;;4930270;29;20211;-69
2023/02/01 12:43:15;;;;;;;0.17;0.17;;;6.00;99.90;;;;;;4932437;29;20203;-68
2023/02/01 12:45:46;;;;;;;0.20;0.20;;;5.80;99.90;;;;;;4931572;29;20214;-69
2023/02/01 12:48:28;;;;;;;0.82;0.50;;;5.60;99.90;;;;;;4926530;29;20249;-69
2023/02/01 12:50:59;;;;;;;1.02;0.40;;;5.50;99.90;;;;;;4932370;29;20207;-69
2023/02/01 12:53:30;;;;;;;0.20;0.20;;;5.40;99.90;;;;;;4934372;29;20318;-69
2023/02/01 12:56:02;;;;;;;0.10;0.10;;;5.30;99.90;;;;;;4931568;29;20221;-69
2023/02/01 12:58:39;;;;;;;2.20;0.40;;;5.20;99.90;;;;;;4934065;29;20407;-69
2023/02/01 13:01:10;;;;;;;0.20;0.20;;;5.10;99.90;;;;;;4935939;29;20206;-69
2023/02/01 13:03:42;;;;;;;0.32;0.32;;;5.10;99.90;;;;;;4931182;29;21144;-69
2023/02/01 13:06:13;;;;;;;0.10;0.10;;;4.90;99.90;;;;;;4935990;29;20202;-68
2023/02/01 13:08:47;;;;;;;0.68;0.68;;;4.90;99.90;;;;;;4935545;29;20257;-68
2023/02/01 13:11:21;;;;;;;0.60;0.60;;;4.80;99.90;;;;;;4934647;29;20210;-68
2023/02/01 13:13:59;;;;;;;0.32;0.32;;;4.70;99.90;;;;;;4934180;29;20213;-68
2023/02/01 13:16:29;;;;;;;0.35;0.35;;;4.50;99.90;;;;;;4936154;29;20190;-68
2023/02/01 13:19:11;;;;;;;0.20;0.20;;;4.40;99.90;;;;;;4934300;29;20317;-68
2023/02/01 13:21:40;;;;;;;0.20;0.20;;;4.30;99.90;;;;;;4935116;29;20206;-68
2023/02/01 13:24:24;;;;;;;0.20;0.20;;;4.20;99.90;;;;;;4935371;29;20663;-68
2023/02/01 13:26:54;;;;;;;0.60;0.60;;;4.10;99.90;;;;;;4934395;29;20213;-67
2023/02/01 13:29:22;;;;;;;0.32;0.32;;;4.10;99.90;;;;;;4935466;29;20318;-68
2023/02/01 13:32:01;;;;;;;0.10;0.10;;;4.10;99.90;;;;;;4934919;29;20237;-68
2023/02/01 13:35:04;;;;;;;0.30;0.30;;;4.10;99.90;;;;;;4934008;29;20221;-68
2023/02/01 13:37:53;;;;;;;0.10;0.10;;;4.00;99.90;;;;;;4926339;29;20572;-68
2023/02/01 13:40:36;;;;;;;9.93;0.88;;;4.00;99.90;;;;;;4933293;29;20211;-68
2023/02/01 13:43:11;;;;;;;0.10;0.10;;;4.00;99.90;;;;;;4933839;29;20213;-68
2023/02/01 13:45:46;;;;;;;0.10;0.10;;;4.00;99.90;;;;;;4931462;29;20662;-68
2023/02/01 13:48:21;;;;;;;0.75;0.57;;;4.10;99.90;;;;;;4930240;28;20754;-68
2023/02/01 13:50:53;;;;;;;0.43;0.25;;;4.20;99.90;;;;;;4929205;29;20221;-68
2023/02/01 13:53:24;;;;;;;3.03;0.75;;;4.30;99.90;;;;;;4933511;29;20262;-69
2023/02/01 13:55:57;;;;;;;1.13;0.85;;;4.40;99.90;;;;;;4934466;29;20639;-69
2023/02/01 13:58:33;;;;;;;0.47;0.47;;;4.40;99.90;;;;;;4934539;29;20234;-68
2023/02/01 14:01:32;;;;;;;0.10;0.10;;;4.40;99.90;;;;;;4934872;29;20217;-68
2023/02/01 14:04:01;;;;;;;0.40;0.40;;;4.40;99.90;;;;;;4932620;29;20310;-68
2023/02/01 14:06:47;;;;;;;0.20;0.20;;;4.40;99.90;;;;;;4934754;29;20207;-68
2023/02/01 14:09:17;;;;;;;0.10;0.10;;;4.40;99.90;;;;;;4924352;29;20226;-68
2023/02/01 14:11:47;;;;;;;0.10;0.10;;;4.40;99.90;;;;;;4935417;29;20660;-68
2023/02/01 14:14:41;;;;;;;0.20;0.20;;;4.40;99.90;;;;;;4934310;29;20578;-68
2023/02/01 14:17:36;;;;;;;0.20;0.20;;;4.40;99.90;;;;;;4933592;29;20210;-68
2023/02/01 14:20:54;;;;;;;0.25;0.25;;;4.40;99.90;;;;;;4934325;29;20214;-68
2023/02/01 14:23:32;;;;;;;1.65;0.47;;;4.30;99.90;;;;;;4916167;29;20666;-68
2023/02/01 14:26:19;;;;;;;0.10;0.10;;;4.30;99.90;;;;;;4939386;29;20225;-70
2023/02/01 14:28:51;;;;;;;6.82;1.60;;;4.30;99.90;;;;;;4932760;29;20565;-68
2023/02/01 14:31:40;;;;;;;0.50;0.50;;;4.40;99.90;;;;;;4938256;29;20241;-70
2023/02/01 14:34:16;;;;;;;0.20;0.20;;;4.40;99.90;;;;;;4934730;29;20198;-70
2023/02/01 14:36:47;;;;;;;0.43;0.43;;;4.50;99.90;;;;;;4930244;29;20205;-69
2023/02/01 14:39:31;;;;;;;0.10;0.10;;;4.50;99.90;;;;;;4934618;29;20218;-69
2023/02/01 14:42:01;;;;;;;0.30;0.30;;;4.50;99.90;;;;;;4929542;29;20303;-70
2023/02/01 14:44:34;;;;;;;0.30;0.30;;;4.60;99.90;;;;;;4929628;29;20221;-69
2023/02/01 14:47:11;;;;;;;0.10;0.10;;;4.60;99.90;;;;;;4932799;29;20320;-69
2023/02/01 14:49:49;;;;;;;1.05;0.57;;;4.60;99.90;;;;;;4932657;29;20213;-69
2023/02/01 14:52:21;;;;;;;0.43;0.43;;;4.70;99.90;;;;;;4927421;29;20222;-69
2023/02/01 14:54:53;;;;;;;0.20;0.20;;;4.70;99.90;;;;;;4934097;29;20289;-69
2023/02/01 14:57:24;;;;;;;0.25;0.25;;;4.70;99.90;;;;;;4933954;29;20210;-69
2023/02/01 14:59:58;;;;;;;0.32;0.32;;;4.70;99.90;;;;;;4934200;29;20210;-68
2023/02/01 15:02:27;;;;;;;0.43;0.43;;;4.80;99.90;;;;;;4932491;29;20203;-69
2023/02/01 15:04:57;;;;;;;0.20;0.20;;;4.80;99.90;;;;;;4929139;29;20206;-68
2023/02/01 15:07:26;;;;;;;0.30;0.20;;;4.80;99.90;;;;;;4932780;29;20209;-68
2023/02/01 15:09:56;;;;;;;1.10;1.10;;;4.80;99.90;;;;;;4933186;29;20282;-69
2023/02/01 15:12:27;;;;;;;0.30;0.30;;;4.70;99.90;;;;;;4933880;29;20222;-68
2023/02/01 15:15:16;;;;;;;0.50;0.50;;;4.60;99.90;;;;;;4932294;29;20605;-68
2023/02/01 15:17:51;;;;;;;0.43;0.43;;;4.50;99.90;;;;;;4931384;29;20261;-68
2023/02/01 15:20:21;;;;;;;0.10;0.10;;;4.40;99.90;;;;;;4929535;29;20209;-68
2023/02/01 15:22:55;;;;;;;0.20;0.20;;;4.40;99.90;;;;;;4926799;29;20214;-69
2023/02/01 15:25:23;;;;;;;0.47;0.47;;;4.40;99.90;;;;;;4932009;29;20206;-68
2023/02/01 15:27:51;;;;;;;0.20;0.20;;;4.40;99.90;;;;;;4928445;29;20234;-69
2023/02/01 15:30:20;;;;;;;0.52;0.40;;;4.30;99.90;;;;;;4932946;29;20217;-69
2023/02/01 15:32:49;;;;;;;0.30;0.30;;;4.40;99.90;;;;;;4925835;29;20230;-69
2023/02/01 15:35:42;;;;;;;0.30;0.30;;;4.40;99.90;;;;;;4931179;29;20221;-69
2023/02/01 15:38:32;;;;;;;0.30;0.30;;;4.40;99.90;;;;;;4932058;29;20317;-69
2023/02/01 15:41:02;;;;;;;0.75;0.75;;;4.40;99.90;;;;;;4929279;29;20211;-69
2023/02/01 15:43:30;;;;;;;0.20;0.20;;;4.40;99.90;;;;;;4933563;29;20202;-69
2023/02/01 15:45:58;;;;;;;5.88;0.40;;;4.40;99.90;;;;;;4931349;29;20603;-69
2023/02/01 15:48:28;;;;;;;0.35;0.35;;;4.30;99.90;;;;;;4933241;29;20246;-69
2023/02/01 15:50:56;;;;;;;1.30;0.52;;;4.40;99.90;;;;;;4931424;29;20214;-69
2023/02/01 15:53:29;;;;;;;0.20;0.20;;;4.30;99.90;;;;;;4932239;29;20226;-69
2023/02/01 15:55:59;;;;;;;0.10;0.10;;;4.30;99.90;;;;;;4925197;29;20222;-69
2023/02/01 15:58:27;;;;;;;0.20;0.20;;;4.30;99.90;;;;;;4931189;29;20379;-69
2023/02/01 16:00:57;;;;;;;1.05;0.40;;;4.30;99.90;;;;;;4932242;29;20217;-69
2023/02/01 16:03:36;;;;;;;0.35;0.35;;;4.30;99.90;;;;;;4919899;29;20214;-69
2023/02/01 16:06:05;;;;;;;0.35;0.35;;;4.20;99.90;;;;;;4931794;29;20604;-69
2023/02/01 16:08:34;;;;;;;2.65;1.08;;;4.20;99.90;;;;;;4931805;29;20322;-68
2023/02/01 16:11:14;;;;;;;0.38;0.20;;;4.20;99.90;;;;;;4931360;29;20238;-68
2023/02/01 16:13:41;;;;;;;0.30;0.30;;;4.20;99.90;;;;;;4938825;29;20221;-68
2023/02/01 16:16:13;;;;;;;0.15;0.15;;;4.20;99.90;;;;;;4945177;29;20278;-69
2023/02/01 16:18:42;;;;;;;1.17;0.57;;;4.20;99.90;;;;;;4932578;29;20234;-70
2023/02/01 16:21:09;;;;;;;1.35;0.57;;;4.30;99.90;;;;;;4931347;29;20222;-70
2023/02/01 16:23:36;;;;;;;0.50;0.50;;;4.30;99.90;;;;;;4925322;29;20669;-70
2023/02/01 16:26:03;;;;;;;3.65;1.13;;;4.30;99.90;;;;;;4931355;29;20566;-69
2023/02/01 16:28:30;;;;;;;5.35;1.17;;;4.30;99.90;;;;;;4937400;29;20236;-69
2023/02/01 16:30:57;;;;;;;2.53;2.33;;;4.40;99.90;;;;;;4934352;29;20229;-69
2023/02/01 16:33:24;;;;;;;4.28;2.78;;;4.40;99.90;;;;;;4930868;29;20694;-69
2023/02/01 16:35:59;;;;;;;2.60;1.15;;;4.40;99.90;;;;;;4935928;29;20644;-70
2023/02/01 16:38:26;;;;;;;2.47;1.73;;;4.40;99.90;;;;;;4931075;29;20259;-68
2023/02/01 16:40:53;;;;;;;1.40;1.40;;;4.40;99.90;;;;;;4935631;29;20229;-69
2023/02/01 16:43:21;;;;;;;1.67;1.63;;;4.50;99.90;;;;;;4934297;29;20199;-69
2023/02/01 16:45:50;;;;;;;1.85;1.58;;;4.50;99.90;;;;;;4936672;29;20571;-69
2023/02/01 16:48:22;;;;;;;7.18;1.08;;;4.50;99.90;;;;;;4935629;29;20595;-69
2023/02/01 16:50:53;;;;;;;3.53;0.70;;;4.50;99.90;;;;;;4935956;29;20211;-69
2023/02/01 16:53:21;;;;;;;3.63;3.25;;;4.50;99.90;;;;;;4936009;29;20691;-68
2023/02/01 16:55:49;;;;;;;1.30;1.20;;;4.50;99.90;;;;;;4934306;29;20350;-68
2023/02/01 16:58:16;;;;;;;1.63;1.52;;;4.50;99.90;;;;;;4936319;29;20322;-69
2023/02/01 17:00:43;;;;;;;2.25;0.40;;;4.50;99.90;;;;;;4935427;29;20542;-70
2023/02/01 17:03:16;;;;;;;15.55;2.38;;;4.50;99.90;;;;;;4933160;29;20644;-68
2023/02/01 17:05:45;;;;;;;0.70;0.70;;;4.60;99.90;;;;;;4935852;29;20243;-68
2023/02/01 17:08:18;;;;;;;2.25;2.15;;;4.60;99.90;;;;;;4931101;29;20229;-69
2023/02/01 17:10:46;;;;;;;2.75;1.65;;;4.60;99.90;;;;;;4933842;29;20273;-69
2023/02/01 17:13:14;;;;;;;0.20;0.20;;;4.70;99.90;;;;;;4935602;29;20250;-70
2023/02/01 17:15:50;;;;;;;2.40;0.80;;;4.70;99.90;;;;;;4937722;29;20208;-69
2023/02/01 17:18:19;;;;;;;1.02;0.82;;;4.70;99.90;;;;;;4928593;29;20284;-69
2023/02/01 17:20:47;;;;;;;0.50;0.50;;;4.70;99.90;;;;;;4935205;29;20210;-69
2023/02/01 17:23:16;;;;;;;0.80;0.47;;;4.80;99.90;;;;;;4934480;29;20202;-67
2023/02/01 17:25:42;;;;;;;1.48;0.40;;;4.70;99.90;;;;;;4934132;29;20210;-68
2023/02/01 17:28:09;;;;;;;1.15;1.15;;;4.80;99.90;;;;;;4934914;29;20340;-68
2023/02/01 17:30:38;;;;;;;15.57;2.75;;;4.80;99.90;;;;;;4936161;29;20211;-70
2023/02/01 17:33:11;;;;;;;4.20;1.95;;;4.80;99.90;;;;;;4935258;29;20227;-68
2023/02/01 17:35:38;;;;;;;17.67;2.33;;;4.80;99.90;;;;;;4940239;29;20215;-69
2023/02/01 17:38:11;;;;;;;4.22;1.75;;;4.90;99.90;;;;;;4940743;29;20240;-68
2023/02/01 17:40:39;;;;;;;1.75;0.50;;;4.90;99.90;;;;;;4938499;29;20207;-70
2023/02/01 17:43:06;;;;;;;0.95;0.32;;;4.90;99.90;;;;;;4939072;29;20203;-69
2023/02/01 17:45:39;;;;;;;15.80;0.77;;;4.90;99.90;;;;;;4934038;29;20222;-68
2023/02/01 17:48:07;;;;;;;0.43;0.43;;;4.90;99.90;;;;;;4932041;29;20281;-68
2023/02/01 17:50:37;;;;;;;16.13;0.93;;;4.90;99.90;;;;;;4935447;29;20667;-69
2023/02/01 17:53:08;;;;;;;0.60;0.60;;;5.00;99.90;;;;;;4935688;29;20230;-69
2023/02/01 17:55:36;;;;;;;0.30;0.30;;;5.00;99.90;;;;;;4936891;29;20202;-68
2023/02/01 17:58:05;;;;;;;8.27;2.75;;;5.00;99.90;;;;;;4935544;29;20242;-69
2023/02/01 18:00:31;;;;;;;8.88;1.77;;;5.00;99.90;;;;;;4932199;29;20208;-69
2023/02/01 18:02:59;;;;;;;16.90;2.15;;;5.00;99.90;;;;;;4932691;29;20207;-70
2023/02/01 18:05:29;;;;;;;1.65;1.55;;;5.00;99.90;;;;;;4932786;29;20221;-69
2023/02/01 18:07:56;;;;;;;0.50;0.50;;;4.90;99.90;;;;;;4933799;29;20235;-70
2023/02/01 18:10:22;;;;;;;11.23;0.95;;;4.90;99.90;;;;;;4932588;29;20294;-69
2023/02/01 18:12:49;;;;;;;0.80;0.80;;;4.90;99.90;;;;;;4926039;29;20578;-69
2023/02/01 18:15:19;;;;;;;0.85;0.85;;;5.00;99.90;;;;;;4929554;29;20539;-69
2023/02/01 18:17:46;;;;;;;2.60;0.93;;;5.00;99.90;;;;;;4933850;29;20237;-68
2023/02/01 18:20:15;;;;;;;20.65;4.70;;;5.00;99.90;;;;;;4934280;29;20222;-68
2023/02/01 18:22:42;;;;;;;3.83;0.40;;;4.90;99.90;;;;;;4933113;29;20273;-68
2023/02/01 18:25:16;;;;;;;16.50;2.00;;;4.90;99.90;;;;;;4925365;29;20213;-69
2023/02/01 18:27:43;;;;;;;1.15;1.15;;;4.90;99.90;;;;;;4929855;29;20561;-69